createdAt,value
2022-08-07T00:00:25.490Z,0.6
2022-08-07T00:01:44.893Z,0.6
2022-08-07T00:02:44.404Z,0.6
2022-08-07T00:03:50.860Z,0.5
2022-08-07T00:04:59.327Z,0.5
2022-08-07T00:06:07.614Z,0.5
2022-08-07T00:07:16.258Z,0.8
2022-08-07T00:08:24.643Z,0.8
2022-08-07T00:09:34.377Z,0.8
2022-08-07T00:10:41.641Z,0.5
2022-08-07T00:11:54.332Z,0.5
2022-08-07T00:13:00.899Z,0.5
2022-08-07T00:14:06.970Z,0.5
2022-08-07T00:15:15.365Z,0.5
2022-08-07T00:16:27.980Z,0.5
2022-08-07T00:17:32.343Z,0.4
2022-08-07T00:18:40.746Z,0.4
2022-08-07T00:20:00.749Z,0.4
2022-08-07T00:20:57.713Z,0.5
2022-08-07T00:22:06.064Z,0.5
2022-08-07T00:23:14.435Z,0.5
2022-08-07T00:24:23.058Z,0.6
2022-08-07T00:25:37.183Z,0.6
2022-08-07T00:26:48.982Z,0.6
2022-08-07T00:27:53.044Z,1
2022-08-07T00:28:57.172Z,1
2022-08-07T00:30:05.189Z,1
2022-08-07T00:31:16.626Z,0.6
2022-08-07T00:32:28.206Z,0.6
2022-08-07T00:33:32.903Z,0.6
2022-08-07T00:34:39.162Z,0.5
2022-08-07T00:35:49.541Z,0.5
2022-08-07T00:36:55.904Z,0.5
2022-08-07T00:38:04.509Z,0.6
2022-08-07T00:39:16.385Z,0.6
2022-08-07T00:40:36.020Z,0.6
2022-08-07T00:41:29.856Z,0.6
2022-08-07T00:42:38.230Z,0.6
2022-08-07T00:43:59.974Z,0.6
2022-08-07T00:44:55.254Z,0.6
2022-08-07T00:46:03.665Z,0.6
2022-08-07T00:47:15.729Z,0.6
2022-08-07T00:48:24.885Z,0.6
2022-08-07T00:50:17.400Z,0.6
2022-08-07T00:50:46.400Z,0.6
2022-08-07T00:51:56.864Z,0.5
2022-08-07T00:52:54.459Z,0.5
2022-08-07T00:54:02.826Z,0.5
2022-08-07T00:55:11.400Z,0.6
2022-08-07T00:56:19.768Z,0.6
2022-08-07T00:57:28.351Z,0.6
2022-08-07T00:58:36.779Z,0.4
2022-08-07T00:59:45.137Z,0.4
2022-08-07T01:00:54.216Z,0.4
2022-08-07T01:02:02.199Z,1
2022-08-07T01:03:10.525Z,1
2022-08-07T01:04:21.634Z,1
2022-08-07T01:05:27.463Z,0.5
2022-08-07T01:06:35.855Z,0.5
2022-08-07T01:07:44.231Z,0.5
2022-08-07T01:08:53.759Z,0.7
2022-08-07T01:10:05.506Z,0.7
2022-08-07T01:12:05.181Z,0.7
2022-08-07T01:12:28.193Z,0.6
2022-08-07T01:13:26.598Z,0.6
2022-08-07T01:14:37.013Z,0.6
2022-08-07T01:16:00.749Z,0.7
2022-08-07T01:16:51.930Z,0.7
2022-08-07T01:18:00.295Z,0.7
2022-08-07T01:19:11.035Z,0.6
2022-08-07T01:20:17.500Z,0.6
2022-08-07T01:21:25.840Z,0.6
2022-08-07T01:22:34.212Z,0.7
2022-08-07T01:23:46.284Z,0.7
2022-08-07T01:24:51.024Z,0.7
2022-08-07T01:25:59.607Z,0.6
2022-08-07T01:27:19.258Z,0.6
2022-08-07T01:28:16.412Z,0.6
2022-08-07T01:29:27.613Z,0.5
2022-08-07T01:30:33.384Z,0.5
2022-08-07T01:31:42.565Z,0.5
2022-08-07T01:32:50.347Z,0.5
2022-08-07T01:33:58.749Z,0.5
2022-08-07T01:35:07.101Z,0.5
2022-08-07T01:36:16.760Z,0.7
2022-08-07T01:37:24.113Z,0.7
2022-08-07T01:38:32.501Z,0.7
2022-08-07T01:39:46.624Z,0.7
2022-08-07T01:40:49.459Z,0.7
2022-08-07T01:42:07.842Z,0.7
2022-08-07T01:43:06.434Z,0.6
2022-08-07T01:44:14.842Z,0.6
2022-08-07T01:45:26.650Z,0.6
2022-08-07T01:46:31.793Z,0.8
2022-08-07T01:48:17.097Z,0.8
2022-08-07T01:48:48.570Z,0.8
2022-08-07T01:49:57.144Z,0.7
2022-08-07T01:51:08.310Z,0.7
2022-08-07T01:52:15.325Z,0.7
2022-08-07T01:54:00.743Z,0.6
2022-08-07T01:54:33.467Z,0.6
2022-08-07T01:55:39.226Z,0.6
2022-08-07T01:56:49.244Z,0.6
2022-08-07T01:58:01.812Z,0.6
2022-08-07T01:59:04.612Z,0.6
2022-08-07T02:00:13.757Z,0.8
2022-08-07T02:01:25.756Z,0.8
2022-08-07T02:02:33.120Z,0.8
2022-08-07T02:03:42.948Z,0.6
2022-08-07T02:04:52.694Z,0.6
2022-08-07T02:06:00.168Z,0.6
2022-08-07T02:07:03.916Z,0.7
2022-08-07T02:08:13.886Z,0.7
2022-08-07T02:09:33.640Z,0.7
2022-08-07T02:10:29.256Z,0.9
2022-08-07T02:11:57.990Z,0.9
2022-08-07T02:12:46.543Z,0.9
2022-08-07T02:13:57.013Z,0.8
2022-08-07T02:15:05.978Z,0.8
2022-08-07T02:16:11.779Z,0.8
2022-08-07T02:17:24.971Z,0.8
2022-08-07T02:18:29.860Z,0.8
2022-08-07T02:20:05.917Z,0.8
2022-08-07T02:20:48.610Z,0.7
2022-08-07T02:21:54.929Z,0.7
2022-08-07T02:23:02.045Z,0.7
2022-08-07T02:24:10.651Z,0.8
2022-08-07T02:25:19.004Z,0.8
2022-08-07T02:26:32.141Z,0.8
2022-08-07T02:27:35.944Z,0.9
2022-08-07T02:28:44.307Z,0.9
2022-08-07T02:29:54.456Z,0.9
2022-08-07T02:31:10.390Z,1.1
2022-08-07T02:32:10.739Z,1.1
2022-08-07T02:33:18.040Z,1.1
2022-08-07T02:34:26.541Z,1
2022-08-07T02:36:26.784Z,1
2022-08-07T02:36:43.298Z,1
2022-08-07T02:37:51.858Z,1.1
2022-08-07T02:39:00.328Z,1.1
2022-08-07T02:40:12.256Z,1.1
2022-08-07T02:41:21.604Z,0.9
2022-08-07T02:42:25.571Z,0.9
2022-08-07T02:43:33.935Z,0.9
2022-08-07T02:44:45.837Z,0.9
2022-08-07T02:45:59.538Z,0.9
2022-08-07T02:46:59.271Z,0.9
2022-08-07T02:48:10.166Z,0.8
2022-08-07T02:49:28.536Z,0.8
2022-08-07T02:50:24.559Z,0.8
2022-08-07T02:51:42.220Z,0.9
2022-08-07T02:52:41.565Z,0.9
2022-08-07T02:53:49.926Z,0.9
2022-08-07T02:54:58.514Z,1
2022-08-07T02:56:07.299Z,1
2022-08-07T02:57:15.277Z,1
2022-08-07T02:58:27.163Z,1
2022-08-07T02:59:32.208Z,1
2022-08-07T03:00:40.621Z,1
2022-08-07T03:01:51.970Z,1.1
2022-08-07T03:02:57.551Z,1.1
2022-08-07T03:04:07.003Z,1.1
2022-08-07T03:05:14.486Z,0.9
2022-08-07T03:06:25.721Z,0.9
2022-08-07T03:07:43.019Z,0.9
2022-08-07T03:08:39.835Z,0.8
2022-08-07T03:09:51.953Z,0.8
2022-08-07T03:10:56.551Z,0.8
2022-08-07T03:12:05.151Z,0.9
2022-08-07T03:13:13.524Z,0.9
2022-08-07T03:14:22.568Z,0.9
2022-08-07T03:15:48.054Z,1.2
2022-08-07T03:16:38.861Z,1.2
2022-08-07T03:17:53.160Z,1.2
2022-08-07T03:18:55.826Z,1
2022-08-07T03:20:04.191Z,1
2022-08-07T03:21:12.581Z,1
2022-08-07T03:22:21.174Z,1.1
2022-08-07T03:23:33.528Z,1.1
2022-08-07T03:24:37.897Z,1.1
2022-08-07T03:25:46.473Z,1.1
2022-08-07T03:26:57.792Z,1.1
2022-08-07T03:28:09.322Z,1.1
2022-08-07T03:29:14.693Z,1.1
2022-08-07T03:30:20.145Z,1.1
2022-08-07T03:31:42.203Z,1.1
2022-08-07T03:32:37.094Z,1
2022-08-07T03:33:45.451Z,1
2022-08-07T03:35:00.762Z,1
2022-08-07T03:36:02.478Z,0.9
2022-08-07T03:37:12.014Z,0.9
2022-08-07T03:38:20.879Z,0.9
2022-08-07T03:39:42.117Z,1
2022-08-07T03:40:36.742Z,1
2022-08-07T03:41:47.596Z,1
2022-08-07T03:42:53.043Z,0.8
2022-08-07T03:44:01.396Z,0.8
2022-08-07T03:45:09.762Z,0.8
2022-08-07T03:46:18.819Z,0.9
2022-08-07T03:47:27.912Z,0.9
2022-08-07T03:48:35.093Z,0.9
2022-08-07T03:49:47.870Z,1.1
2022-08-07T03:50:56.333Z,1.1
2022-08-07T03:52:01.391Z,1.1
2022-08-07T03:53:08.987Z,1.2
2022-08-07T03:54:34.038Z,1.2
2022-08-07T03:55:48.743Z,1.2
2022-08-07T03:56:34.467Z,1
2022-08-07T03:58:32.734Z,1
2022-08-07T03:59:05.861Z,1
2022-08-07T04:00:02.001Z,1
2022-08-07T04:01:11.088Z,1
2022-08-07T04:02:16.361Z,1
2022-08-07T04:03:24.981Z,0.8
2022-08-07T04:04:33.329Z,0.8
2022-08-07T04:05:42.429Z,0.8
2022-08-07T04:06:50.738Z,0.8
2022-08-07T04:07:58.698Z,0.8
2022-08-07T04:09:08.403Z,0.8
2022-08-07T04:10:19.076Z,0.7
2022-08-07T04:12:15.751Z,0.7
2022-08-07T04:12:32.380Z,0.7
2022-08-07T04:14:09.155Z,0.7
2022-08-07T04:14:49.319Z,0.7
2022-08-07T04:15:57.683Z,0.7
2022-08-07T04:17:16.546Z,0.8
2022-08-07T04:18:31.747Z,0.8
2022-08-07T04:19:23.018Z,0.8
2022-08-07T04:20:31.605Z,0.8
2022-08-07T04:21:39.957Z,0.8
2022-08-07T04:22:53.290Z,0.8
2022-08-07T04:24:02.139Z,0.7
2022-08-07T04:25:08.740Z,0.7
2022-08-07T04:26:13.665Z,0.7
2022-08-07T04:27:25.592Z,0.8
2022-08-07T04:28:30.616Z,0.8
2022-08-07T04:29:40.292Z,0.8
2022-08-07T04:30:55.676Z,0.8
2022-08-07T04:32:02.802Z,0.8
2022-08-07T04:33:07.330Z,0.8
2022-08-07T04:34:16.317Z,1.1
2022-08-07T04:35:21.472Z,1.1
2022-08-07T04:36:29.605Z,1.1
2022-08-07T04:37:40.588Z,0.8
2022-08-07T04:38:46.572Z,0.8
2022-08-07T04:39:54.948Z,0.8
2022-08-07T04:41:03.534Z,0.9
2022-08-07T04:42:11.917Z,0.9
2022-08-07T04:43:20.279Z,0.9
2022-08-07T04:44:28.841Z,0.9
2022-08-07T04:45:44.650Z,0.9
2022-08-07T04:46:53.970Z,0.9
2022-08-07T04:47:57.500Z,0.9
2022-08-07T04:49:02.525Z,0.9
2022-08-07T04:50:11.112Z,0.9
2022-08-07T04:51:19.471Z,0.9
2022-08-07T04:52:27.843Z,0.9
2022-08-07T04:53:40.340Z,0.9
2022-08-07T04:54:50.474Z,0.8
2022-08-07T04:58:08.337Z,0.8
2022-08-07T04:58:09.014Z,0.8
2022-08-07T04:58:29.608Z,1
2022-08-07T05:00:09.512Z,1
2022-08-07T05:00:30.523Z,1
2022-08-07T05:01:35.438Z,0.8
2022-08-07T05:02:43.827Z,0.8
2022-08-07T05:04:00.692Z,0.8
2022-08-07T05:05:00.751Z,0.9
2022-08-07T05:06:16.568Z,0.9
2022-08-07T05:07:19.499Z,0.9
2022-08-07T05:08:45.517Z,0.9
2022-08-07T05:09:43.291Z,0.9
2022-08-07T05:10:42.802Z,0.9
2022-08-07T05:11:56.598Z,0.9
2022-08-07T05:13:10.150Z,0.9
2022-08-07T05:14:45.290Z,0.9
2022-08-07T05:15:21.900Z,0.8
2022-08-07T05:16:25.049Z,0.8
2022-08-07T05:17:50.718Z,0.8
2022-08-07T05:18:42.034Z,0.8
2022-08-07T05:19:50.409Z,0.8
2022-08-07T05:20:58.764Z,0.8
2022-08-07T05:22:07.356Z,1
2022-08-07T05:23:16.316Z,1
2022-08-07T05:24:24.656Z,1
2022-08-07T05:25:36.592Z,0.9
2022-08-07T05:26:41.021Z,0.9
2022-08-07T05:28:03.668Z,0.9
2022-08-07T05:28:57.982Z,0.6
2022-08-07T05:30:06.348Z,0.6
2022-08-07T05:31:16.724Z,0.6
2022-08-07T05:32:23.328Z,0.7
2022-08-07T05:33:31.689Z,0.7
2022-08-07T05:34:40.067Z,0.7
2022-08-07T05:35:48.621Z,0.8
2022-08-07T05:36:57.008Z,0.8
2022-08-07T05:38:08.517Z,0.8
2022-08-07T05:40:07.315Z,0.6
2022-08-07T05:40:22.431Z,0.6
2022-08-07T05:42:00.822Z,0.6
2022-08-07T05:42:39.380Z,0.6
2022-08-07T05:44:01.168Z,0.6
2022-08-07T05:45:04.265Z,0.6
2022-08-07T05:46:04.935Z,0.8
2022-08-07T05:47:18.454Z,0.8
2022-08-07T05:48:26.464Z,0.8
2022-08-07T05:49:38.956Z,0.5
2022-08-07T05:50:39.447Z,0.5
2022-08-07T05:51:47.162Z,0.5
2022-08-07T05:52:55.558Z,0.6
2022-08-07T05:54:08.837Z,0.6
2022-08-07T05:55:12.278Z,0.6
2022-08-07T05:56:20.847Z,0.5
2022-08-07T05:57:30.328Z,0.5
2022-08-07T05:58:37.735Z,0.5
2022-08-07T05:59:55.674Z,0.6
2022-08-07T06:00:54.506Z,0.6
2022-08-07T06:02:02.937Z,0.6
2022-08-07T06:03:11.446Z,0.6
2022-08-07T06:04:19.815Z,0.6
2022-08-07T06:05:28.598Z,0.6
2022-08-07T06:06:36.733Z,0.6
2022-08-07T06:08:09.110Z,0.6
2022-08-07T06:08:53.477Z,0.6
2022-08-07T06:10:04.840Z,0.7
2022-08-07T06:11:10.400Z,0.7
2022-08-07T06:12:20.937Z,0.7
2022-08-07T06:13:31.578Z,0.5
2022-08-07T06:14:35.843Z,0.5
2022-08-07T06:15:44.208Z,0.5
2022-08-07T06:16:56.110Z,0.7
2022-08-07T06:18:01.168Z,0.7
2022-08-07T06:19:17.763Z,0.7
2022-08-07T06:20:25.299Z,0.6
2022-08-07T06:22:12.103Z,0.6
2022-08-07T06:22:41.716Z,0.6
2022-08-07T06:24:37.332Z,0.6
2022-08-07T06:24:58.306Z,0.6
2022-08-07T06:26:05.460Z,0.6
2022-08-07T06:27:14.778Z,0.8
2022-08-07T06:28:27.872Z,0.8
2022-08-07T06:29:34.927Z,0.8
2022-08-07T06:30:45.944Z,0.6
2022-08-07T06:31:52.273Z,0.6
2022-08-07T06:33:00.681Z,0.6
2022-08-07T06:34:09.267Z,0.8
2022-08-07T06:35:18.198Z,0.8
2022-08-07T06:36:27.590Z,0.8
2022-08-07T06:37:43.345Z,0.7
2022-08-07T06:38:51.489Z,0.7
2022-08-07T06:40:13.871Z,0.7
2022-08-07T06:40:59.955Z,0.8
2022-08-07T06:42:08.344Z,0.8
2022-08-07T06:43:21.082Z,0.8
2022-08-07T06:44:25.413Z,0.7
2022-08-07T06:45:33.778Z,0.7
2022-08-07T06:46:43.739Z,0.7
2022-08-07T06:47:57.861Z,0.8
2022-08-07T06:49:00.741Z,0.8
2022-08-07T06:50:09.093Z,0.8
2022-08-07T06:51:24.519Z,0.7
2022-08-07T06:52:31.155Z,0.7
2022-08-07T06:54:12.438Z,0.7
2022-08-07T06:55:30.346Z,0.7
2022-08-07T06:56:01.116Z,0.7
2022-08-07T06:56:59.691Z,0.7
2022-08-07T06:58:09.599Z,0.8
2022-08-07T07:00:10.641Z,0.8
2022-08-07T07:00:25.043Z,0.8
2022-08-07T07:01:42.242Z,0.7
2022-08-07T07:02:48.290Z,0.7
2022-08-07T07:03:55.071Z,0.7
2022-08-07T07:04:58.889Z,0.8
2022-08-07T07:06:10.950Z,0.8
2022-08-07T07:07:19.148Z,0.8
2022-08-07T07:08:25.782Z,0.7
2022-08-07T07:09:32.571Z,0.7
2022-08-07T07:10:47.487Z,0.7
2022-08-07T07:12:07.174Z,0.6
2022-08-07T07:12:57.948Z,0.6
2022-08-07T07:14:08.450Z,0.6
2022-08-07T07:15:24.285Z,0.8
2022-08-07T07:16:27.384Z,0.8
2022-08-07T07:17:38.723Z,0.8
2022-08-07T07:18:47.623Z,0.7
2022-08-07T07:19:56.787Z,0.7
2022-08-07T07:20:58.451Z,0.7
2022-08-07T07:22:11.640Z,0.7
2022-08-07T07:24:06.880Z,0.7
2022-08-07T07:24:23.745Z,0.7
2022-08-07T07:26:31.852Z,0.6
2022-08-07T07:26:40.708Z,0.6
2022-08-07T07:27:55.959Z,0.6
2022-08-07T07:29:38.805Z,0.6
2022-08-07T07:30:07.643Z,0.6
2022-08-07T07:31:17.186Z,0.6
2022-08-07T07:32:22.960Z,0.4
2022-08-07T07:33:31.326Z,0.4
2022-08-07T07:34:39.720Z,0.4
2022-08-07T07:36:04.446Z,0.6
2022-08-07T07:37:14.829Z,0.6
2022-08-07T07:38:17.696Z,0.6
2022-08-07T07:39:26.366Z,0.5
2022-08-07T07:40:34.641Z,0.5
2022-08-07T07:41:50.566Z,0.5
2022-08-07T07:42:53.990Z,0.5
2022-08-07T07:44:15.007Z,0.5
2022-08-07T07:45:08.378Z,0.5
2022-08-07T07:46:38.635Z,0.7
2022-08-07T07:47:25.495Z,0.7
2022-08-07T07:48:35.448Z,0.7
2022-08-07T07:50:32.029Z,0.7
2022-08-07T07:50:50.734Z,0.7
2022-08-07T07:51:59.551Z,0.7
2022-08-07T07:53:13.774Z,0.8
2022-08-07T07:54:16.041Z,0.8
2022-08-07T07:55:24.419Z,0.8
2022-08-07T07:56:32.995Z,0.5
2022-08-07T07:57:44.192Z,0.5
2022-08-07T07:58:50.596Z,0.5
2022-08-07T07:59:58.311Z,0.5
2022-08-07T08:02:01.092Z,0.5
2022-08-07T08:02:22.812Z,0.5
2022-08-07T08:04:05.856Z,0.5
2022-08-07T08:04:32.182Z,0.5
2022-08-07T08:05:43.020Z,0.5
2022-08-07T08:06:51.050Z,0.5
2022-08-07T08:07:59.777Z,0.5
2022-08-07T08:09:05.835Z,0.5
2022-08-07T08:10:14.738Z,0.6
2022-08-07T08:11:47.518Z,0.6
2022-08-07T08:12:51.460Z,0.6
2022-08-07T08:13:55.116Z,0.6
2022-08-07T08:14:48.065Z,0.6
2022-08-07T08:15:58.188Z,0.6
2022-08-07T08:17:14.146Z,0.7
2022-08-07T08:18:17.236Z,0.7
2022-08-07T08:19:29.613Z,0.7
2022-08-07T08:20:32.195Z,0.7
2022-08-07T08:21:55.607Z,0.7
2022-08-07T08:22:54.207Z,0.7
2022-08-07T08:23:55.649Z,0.6
2022-08-07T08:25:04.900Z,0.6
2022-08-07T08:26:12.398Z,0.6
2022-08-07T08:27:21.239Z,0.6
2022-08-07T08:28:37.463Z,0.6
2022-08-07T08:29:45.283Z,0.6
2022-08-07T08:30:50.896Z,0.6
2022-08-07T08:31:58.486Z,0.6
2022-08-07T08:33:03.238Z,0.6
2022-08-07T08:34:12.359Z,0.7
2022-08-07T08:35:20.232Z,0.7
2022-08-07T08:36:29.901Z,0.7
2022-08-07T08:37:48.644Z,0.7
2022-08-07T08:38:45.494Z,0.7
2022-08-07T08:39:54.734Z,0.7
2022-08-07T08:41:02.713Z,0.8
2022-08-07T08:42:10.804Z,0.8
2022-08-07T08:43:19.179Z,0.8
2022-08-07T08:44:29.505Z,1
2022-08-07T08:45:41.736Z,1
2022-08-07T08:46:44.875Z,1
2022-08-07T08:47:54.916Z,0.7
2022-08-07T08:49:01.483Z,0.7
2022-08-07T08:50:09.854Z,0.7
2022-08-07T08:51:22.417Z,0.6
2022-08-07T08:52:27.852Z,0.6
2022-08-07T08:53:35.188Z,0.6
2022-08-07T08:54:43.776Z,0.7
2022-08-07T08:55:54.227Z,0.7
2022-08-07T08:57:00.552Z,0.7
2022-08-07T08:58:13.115Z,0.6
2022-08-07T08:59:17.474Z,0.6
2022-08-07T09:00:28.689Z,0.6
2022-08-07T09:01:39.926Z,0.7
2022-08-07T09:02:42.915Z,0.7
2022-08-07T09:03:52.675Z,0.7
2022-08-07T09:04:59.824Z,0.6
2022-08-07T09:06:08.204Z,0.6
2022-08-07T09:07:16.548Z,0.6
2022-08-07T09:08:28.382Z,0.6
2022-08-07T09:09:36.673Z,0.6
2022-08-07T09:10:44.206Z,0.6
2022-08-07T09:11:53.656Z,0.6
2022-08-07T09:12:58.883Z,0.6
2022-08-07T09:14:07.270Z,0.6
2022-08-07T09:16:20.824Z,0.7
2022-08-07T09:16:29.707Z,0.7
2022-08-07T09:17:33.887Z,0.7
2022-08-07T09:18:41.184Z,0.4
2022-08-07T09:19:52.378Z,0.4
2022-08-07T09:21:00.369Z,0.4
2022-08-07T09:22:23.248Z,0.5
2022-08-07T09:24:29.597Z,0.5
2022-08-07T09:24:29.932Z,0.5
2022-08-07T09:25:31.855Z,0.6
2022-08-07T09:26:40.225Z,0.6
2022-08-07T09:27:54.899Z,0.6
2022-08-07T09:29:24.622Z,0.4
2022-08-07T09:30:08.635Z,0.4
2022-08-07T09:31:15.390Z,0.4
2022-08-07T09:32:22.492Z,0.6
2022-08-07T09:33:41.396Z,0.6
2022-08-07T09:34:39.216Z,0.6
2022-08-07T09:36:01.705Z,0.5
2022-08-07T09:36:56.185Z,0.5
2022-08-07T09:38:04.534Z,0.5
2022-08-07T09:39:27.383Z,0.5
2022-08-07T09:40:21.518Z,0.5
2022-08-07T09:41:36.110Z,0.5
2022-08-07T09:42:38.423Z,0.7
2022-08-07T09:44:03.706Z,0.7
2022-08-07T09:46:28.811Z,0.7
2022-08-07T09:47:26.535Z,0.7
2022-08-07T09:47:28.010Z,0.7
2022-08-07T09:48:20.748Z,0.7
2022-08-07T09:49:59.947Z,0.5
2022-08-07T09:50:37.499Z,0.5
2022-08-07T09:52:11.037Z,0.5
2022-08-07T09:52:54.475Z,0.6
2022-08-07T09:54:03.369Z,0.6
2022-08-07T09:55:17.185Z,0.6
2022-08-07T09:56:33.895Z,0.5
2022-08-07T09:57:28.458Z,0.5
2022-08-07T09:58:36.604Z,0.5
2022-08-07T09:59:46.642Z,0.6
2022-08-07T10:00:53.587Z,0.6
2022-08-07T10:02:01.969Z,0.6
2022-08-07T10:04:04.422Z,0.6
2022-08-07T10:04:28.044Z,0.6
2022-08-07T10:05:29.613Z,0.6
2022-08-07T10:06:35.951Z,0.9
2022-08-07T10:07:52.511Z,0.9
2022-08-07T10:08:52.646Z,0.9
2022-08-07T10:10:02.754Z,0.6
2022-08-07T10:11:17.314Z,0.6
2022-08-07T10:12:21.414Z,0.6
2022-08-07T10:13:30.010Z,0.6
2022-08-07T10:14:34.910Z,0.6
2022-08-07T10:15:44.251Z,0.6
2022-08-07T10:16:52.033Z,0.6
2022-08-07T10:18:03.172Z,0.6
2022-08-07T10:19:11.192Z,0.6
2022-08-07T10:20:20.691Z,0.7
2022-08-07T10:21:51.043Z,0.7
2022-08-07T10:22:36.601Z,0.7
2022-08-07T10:24:04.509Z,0.6
2022-08-07T10:24:51.085Z,0.6
2022-08-07T10:26:00.544Z,0.6
2022-08-07T10:27:10.351Z,0.7
2022-08-07T10:28:16.540Z,0.7
2022-08-07T10:29:24.897Z,0.7
2022-08-07T10:30:33.478Z,0.4
2022-08-07T10:31:41.871Z,0.4
2022-08-07T10:32:51.789Z,0.4
2022-08-07T10:34:05.292Z,0.6
2022-08-07T10:35:09.024Z,0.6
2022-08-07T10:36:17.089Z,0.6
2022-08-07T10:37:26.612Z,0.6
2022-08-07T10:38:36.385Z,0.6
2022-08-07T10:39:57.690Z,0.6
2022-08-07T10:40:49.813Z,0.6
2022-08-07T10:42:01.726Z,0.6
2022-08-07T10:43:06.564Z,0.6
2022-08-07T10:44:15.117Z,0.5
2022-08-07T10:45:44.192Z,0.5
2022-08-07T10:46:31.906Z,0.5
2022-08-07T10:47:53.021Z,0.6
2022-08-07T10:48:48.917Z,0.6
2022-08-07T10:49:57.285Z,0.6
2022-08-07T10:51:05.867Z,0.6
2022-08-07T10:52:14.230Z,0.6
2022-08-07T10:53:22.790Z,0.6
2022-08-07T10:54:31.169Z,0.5
2022-08-07T10:55:39.598Z,0.5
2022-08-07T10:57:01.290Z,0.5
2022-08-07T10:58:13.278Z,0.7
2022-08-07T10:59:22.071Z,0.7
2022-08-07T11:00:36.318Z,0.7
2022-08-07T11:01:51.200Z,0.5
2022-08-07T11:02:48.929Z,0.5
2022-08-07T11:04:05.651Z,0.5
2022-08-07T11:05:07.280Z,0.4
2022-08-07T11:06:15.713Z,0.4
2022-08-07T11:07:24.994Z,0.4
2022-08-07T11:08:30.550Z,0.6
2022-08-07T11:10:08.141Z,0.6
2022-08-07T11:10:51.717Z,0.6
2022-08-07T11:11:59.253Z,0.4
2022-08-07T11:13:03.911Z,0.4
2022-08-07T11:14:43.317Z,0.4
2022-08-07T11:15:20.850Z,0.6
2022-08-07T11:16:29.881Z,0.6
2022-08-07T11:17:42.997Z,0.6
2022-08-07T11:18:50.818Z,0.6
2022-08-07T11:19:54.529Z,0.6
2022-08-07T11:21:02.883Z,0.6
2022-08-07T11:22:19.001Z,0.5
2022-08-07T11:23:20.653Z,0.5
2022-08-07T11:24:28.347Z,0.5
2022-08-07T11:25:42.337Z,0.5
2022-08-07T11:26:48.407Z,0.5
2022-08-07T11:28:01.035Z,0.5
2022-08-07T11:29:02.239Z,0.5
2022-08-07T11:30:18.140Z,0.5
2022-08-07T11:31:18.957Z,0.5
2022-08-07T11:32:27.538Z,0.6
2022-08-07T11:33:48.827Z,0.6
2022-08-07T11:34:44.279Z,0.6
2022-08-07T11:35:59.412Z,0.7
2022-08-07T11:37:01.215Z,0.7
2022-08-07T11:38:10.581Z,0.7
2022-08-07T11:39:19.629Z,0.6
2022-08-07T11:40:28.064Z,0.6
2022-08-07T11:42:00.651Z,0.6
2022-08-07T11:42:43.462Z,0.6
2022-08-07T11:43:55.054Z,0.6
2022-08-07T11:45:00.208Z,0.6
2022-08-07T11:46:08.774Z,0.6
2022-08-07T11:47:17.148Z,0.6
2022-08-07T11:48:29.922Z,0.6
2022-08-07T11:49:51.666Z,0.6
2022-08-07T11:50:44.423Z,0.6
2022-08-07T11:51:50.828Z,0.6
2022-08-07T11:52:59.383Z,0.5
2022-08-07T11:54:10.326Z,0.5
2022-08-07T11:55:19.170Z,0.5
2022-08-07T11:56:27.907Z,0.4
2022-08-07T11:57:58.320Z,0.4
2022-08-07T11:58:45.688Z,0.4
2022-08-07T12:00:08.485Z,0.5
2022-08-07T12:01:04.260Z,0.5
2022-08-07T12:02:17.889Z,0.5
2022-08-07T12:03:42.393Z,0.5
2022-08-07T12:04:27.808Z,0.5
2022-08-07T12:05:41.834Z,0.5
2022-08-07T12:06:44.843Z,0.5
2022-08-07T12:07:53.374Z,0.5
2022-08-07T12:09:01.516Z,0.5
2022-08-07T12:10:10.113Z,0.6
2022-08-07T12:11:20.875Z,0.6
2022-08-07T12:12:26.857Z,0.6
2022-08-07T12:13:37.334Z,0.5
2022-08-07T12:14:43.806Z,0.5
2022-08-07T12:16:05.546Z,0.5
2022-08-07T12:17:00.750Z,0.4
2022-08-07T12:18:11.177Z,0.4
2022-08-07T12:19:21.222Z,0.4
2022-08-07T12:20:30.520Z,0.6
2022-08-07T12:21:55.241Z,0.6
2022-08-07T12:22:47.143Z,0.6
2022-08-07T12:24:04.815Z,0.6
2022-08-07T12:25:01.936Z,0.6
2022-08-07T12:26:23.722Z,0.6
2022-08-07T12:27:27.791Z,0.4
2022-08-07T12:28:30.757Z,0.4
2022-08-07T12:29:37.396Z,0.4
2022-08-07T12:30:46.638Z,0.5
2022-08-07T12:32:02.323Z,0.5
2022-08-07T12:33:01.268Z,0.5
2022-08-07T12:34:11.122Z,0.5
2022-08-07T12:35:19.169Z,0.5
2022-08-07T12:36:32.852Z,0.5
2022-08-07T12:38:08.745Z,0.5
2022-08-07T12:38:47.366Z,0.5
2022-08-07T12:39:51.957Z,0.5
2022-08-07T12:41:00.576Z,0.5
2022-08-07T12:42:08.891Z,0.5
2022-08-07T12:43:50.780Z,0.5
2022-08-07T12:44:25.893Z,0.5
2022-08-07T12:45:34.267Z,0.5
2022-08-07T12:46:42.619Z,0.5
2022-08-07T12:47:51.191Z,0.7
2022-08-07T12:48:59.557Z,0.7
2022-08-07T12:50:34.577Z,0.7
2022-08-07T12:51:17.500Z,0.6
2022-08-07T12:52:24.894Z,0.6
2022-08-07T12:54:02.439Z,0.6
2022-08-07T12:54:41.845Z,0.8
2022-08-07T12:56:01.955Z,0.8
2022-08-07T12:56:59.055Z,0.8
2022-08-07T12:58:07.193Z,0.6
2022-08-07T12:59:20.542Z,0.6
2022-08-07T13:00:31.388Z,0.6
2022-08-07T13:01:32.861Z,0.6
2022-08-07T13:02:40.848Z,0.6
2022-08-07T13:03:51.356Z,0.6
2022-08-07T13:05:01.312Z,0.6
2022-08-07T13:06:16.804Z,0.6
2022-08-07T13:07:18.073Z,0.6
2022-08-07T13:08:23.355Z,0.5
2022-08-07T13:10:09.809Z,0.5
2022-08-07T13:10:43.941Z,0.5
2022-08-07T13:12:02.837Z,0.5
2022-08-07T13:12:56.785Z,0.5
2022-08-07T13:14:05.194Z,0.5
2022-08-07T13:15:14.234Z,0.6
2022-08-07T13:16:22.183Z,0.6
2022-08-07T13:17:39.885Z,0.6
2022-08-07T13:18:39.113Z,0.6
2022-08-07T13:19:50.404Z,0.6
2022-08-07T13:20:55.898Z,0.6
2022-08-07T13:22:12.869Z,0.6
2022-08-07T13:24:00.456Z,0.6
2022-08-07T13:24:21.308Z,0.6
2022-08-07T13:25:30.603Z,0.6
2022-08-07T13:26:38.302Z,0.6
2022-08-07T13:28:06.055Z,0.6
2022-08-07T13:28:58.195Z,0.7
2022-08-07T13:30:04.019Z,0.7
2022-08-07T13:31:12.913Z,0.7
2022-08-07T13:32:31.049Z,0.6
2022-08-07T13:34:32.418Z,0.6
2022-08-07T13:34:37.423Z,0.6
2022-08-07T13:36:00.141Z,0.5
2022-08-07T13:36:54.407Z,0.5
2022-08-07T13:38:02.782Z,0.5
2022-08-07T13:39:12.756Z,0.8
2022-08-07T13:40:34.686Z,0.8
2022-08-07T13:41:29.308Z,0.8
2022-08-07T13:42:39.289Z,0.7
2022-08-07T13:43:45.102Z,0.7
2022-08-07T13:44:55.565Z,0.7
2022-08-07T13:46:07.666Z,0.4
2022-08-07T13:47:10.459Z,0.4
2022-08-07T13:48:20.759Z,0.4
2022-08-07T13:50:31.744Z,0.5
2022-08-07T13:50:44.571Z,0.5
2022-08-07T13:52:05.712Z,0.5
2022-08-07T13:52:52.994Z,0.4
2022-08-07T13:54:01.927Z,0.4
2022-08-07T13:55:10.878Z,0.4
2022-08-07T13:56:18.332Z,0.4
2022-08-07T13:57:26.739Z,0.4
2022-08-07T13:58:35.130Z,0.4
2022-08-07T13:59:43.821Z,0.4
2022-08-07T14:00:54.467Z,0.4
2022-08-07T14:02:04.264Z,0.4
2022-08-07T14:03:09.266Z,0.7
2022-08-07T14:04:21.250Z,0.7
2022-08-07T14:05:46.270Z,0.7
2022-08-07T14:06:58.216Z,0.6
2022-08-07T14:08:11.214Z,0.6
2022-08-07T14:10:03.176Z,0.6
2022-08-07T14:10:31.584Z,0.5
2022-08-07T14:11:53.068Z,0.5
2022-08-07T14:12:54.629Z,0.5
2022-08-07T14:14:05.529Z,0.5
2022-08-07T14:15:16.556Z,0.5
2022-08-07T14:16:27.244Z,0.5
2022-08-07T14:18:13.391Z,0.6
2022-08-07T14:18:41.929Z,0.6
2022-08-07T14:20:39.116Z,0.6
2022-08-07T14:20:58.946Z,0.4
2022-08-07T14:22:10.671Z,0.4
2022-08-07T14:23:18.098Z,0.4
2022-08-07T14:24:29.268Z,0.6
2022-08-07T14:25:39.187Z,0.6
2022-08-07T14:26:50.151Z,0.6
2022-08-07T14:28:10.150Z,0.6
2022-08-07T15:03:19.578Z,0
2022-08-07T15:04:28.656Z,0
2022-08-07T15:05:35.390Z,0
2022-08-07T15:06:47.717Z,0.7
2022-08-07T15:07:52.757Z,0.7
2022-08-07T15:09:00.777Z,0.7
2022-08-07T15:10:11.179Z,0.5
2022-08-07T15:11:17.806Z,0.5
2022-08-07T15:12:30.237Z,0.5
2022-08-07T15:13:35.804Z,0.7
2022-08-07T15:14:56.249Z,0.7
2022-08-07T15:15:52.362Z,0.7
2022-08-07T15:17:00.490Z,0.7
2022-08-07T15:18:14.184Z,0.7
2022-08-07T15:19:16.891Z,0.7
2022-08-07T15:20:32.215Z,0.6
2022-08-07T15:21:44.536Z,0.6
2022-08-07T15:22:42.199Z,0.6
2022-08-07T15:25:02.117Z,0.7
2022-08-07T15:25:04.155Z,0.7
2022-08-07T15:26:07.627Z,0.7
2022-08-07T15:27:16.248Z,0.6
2022-08-07T15:28:33.318Z,0.6
2022-08-07T15:30:04.098Z,0.6
2022-08-07T15:30:59.678Z,0.7
2022-08-07T15:31:57.490Z,0.7
2022-08-07T15:33:01.749Z,0.7
2022-08-07T15:34:11.063Z,0.7
2022-08-07T15:35:16.839Z,0.7
2022-08-07T15:37:02.579Z,0.7
2022-08-07T15:38:04.927Z,0.4
2022-08-07T15:38:52.114Z,0.4
2022-08-07T15:39:56.763Z,0.4
2022-08-07T15:41:00.578Z,0.7
2022-08-07T15:42:43.142Z,0.7
2022-08-07T15:43:29.857Z,0.7
2022-08-07T15:44:23.483Z,0.8
2022-08-07T15:45:55.331Z,0.8
2022-08-07T15:46:50.091Z,0.8
2022-08-07T15:48:00.625Z,0.4
2022-08-07T15:49:03.957Z,0.4
2022-08-07T15:51:13.679Z,0.8
2022-08-07T15:52:29.890Z,0.8
2022-08-07T15:53:48.614Z,0.8
2022-08-07T15:54:39.338Z,0.5
2022-08-07T15:55:53.252Z,0.5
2022-08-07T15:56:55.767Z,0.5
2022-08-07T15:58:04.343Z,0.5
2022-08-07T15:59:16.193Z,0.5
2022-08-07T16:00:22.693Z,0.5
2022-08-07T16:01:38.926Z,0.9
2022-08-07T16:02:38.041Z,0.9
2022-08-07T16:03:47.733Z,0.9
2022-08-07T16:04:54.984Z,0.6
2022-08-07T16:06:03.367Z,0.6
2022-08-07T16:08:28.645Z,0.6
2022-08-07T16:08:28.852Z,0.5
2022-08-07T16:09:40.923Z,0.5
2022-08-07T16:10:37.059Z,0.5
2022-08-07T16:11:45.647Z,0.5
2022-08-07T16:12:58.097Z,0.5
2022-08-07T16:14:02.814Z,0.5
2022-08-07T16:15:41.960Z,0.6
2022-08-07T16:16:43.524Z,0.6
2022-08-07T16:18:01.070Z,0.6
2022-08-07T16:18:43.693Z,0.5
2022-08-07T16:19:58.542Z,0.5
2022-08-07T16:20:55.084Z,0.5
2022-08-07T16:22:06.729Z,0.5